sensor_id;sensor_type;location;lat;lon;timestamp;temperature;humidity
13426;DHT22;6785;57.918;12.530;2023-04-16T00:01:11;7.70;99.90
13426;DHT22;6785;57.918;12.530;2023-04-16T00:03:37;7.80;99.90
13426;DHT22;6785;57.918;12.530;2023-04-16T00:06:04;7.70;99.90
13426;DHT22;6785;57.918;12.530;2023-04-16T00:08:31;7.70;99.90
13426;DHT22;6785;57.918;12.530;2023-04-16T00:11:01;7.70;99.90
13426;DHT22;6785;57.918;12.530;2023-04-16T00:13:28;7.70;99.90
13426;DHT22;6785;57.918;12.530;2023-04-16T00:15:54;7.60;99.90
13426;DHT22;6785;57.918;12.530;2023-04-16T00:18:21;7.60;99.90
13426;DHT22;6785;57.918;12.530;2023-04-16T00:20:48;7.60;99.90
13426;DHT22;6785;57.918;12.530;2023-04-16T00:23:15;7.50;99.90
13426;DHT22;6785;57.918;12.530;2023-04-16T00:25:42;7.50;99.90
13426;DHT22;6785;57.918;12.530;2023-04-16T00:28:10;7.50;99.90
13426;DHT22;6785;57.918;12.530;2023-04-16T00:30:37;7.40;99.90
13426;DHT22;6785;57.918;12.530;2023-04-16T00:33:04;7.40;99.90
13426;DHT22;6785;57.918;12.530;2023-04-16T00:35:31;7.40;99.90
13426;DHT22;6785;57.918;12.530;2023-04-16T00:37:57;7.40;99.90
13426;DHT22;6785;57.918;12.530;2023-04-16T00:40:26;7.40;99.90
13426;DHT22;6785;57.918;12.530;2023-04-16T00:42:53;7.40;99.90
13426;DHT22;6785;57.918;12.530;2023-04-16T00:45:21;7.30;99.90
13426;DHT22;6785;57.918;12.530;2023-04-16T00:47:48;7.30;99.90
13426;DHT22;6785;57.918;12.530;2023-04-16T00:50:15;7.30;99.90
13426;DHT22;6785;57.918;12.530;2023-04-16T00:52:43;7.30;99.90
13426;DHT22;6785;57.918;12.530;2023-04-16T00:55:11;7.30;99.90
13426;DHT22;6785;57.918;12.530;2023-04-16T00:57:39;7.30;99.90
13426;DHT22;6785;57.918;12.530;2023-04-16T01:00:07;7.20;99.90
13426;DHT22;6785;57.918;12.530;2023-04-16T01:02:35;7.20;99.90
13426;DHT22;6785;57.918;12.530;2023-04-16T01:05:03;7.20;99.90
13426;DHT22;6785;57.918;12.530;2023-04-16T01:07:30;7.20;99.90
13426;DHT22;6785;57.918;12.530;2023-04-16T01:09:57;7.10;99.90
13426;DHT22;6785;57.918;12.530;2023-04-16T01:12:24;7.10;99.90
13426;DHT22;6785;57.918;12.530;2023-04-16T01:14:51;7.10;99.90
13426;DHT22;6785;57.918;12.530;2023-04-16T01:17:18;7.10;99.90
13426;DHT22;6785;57.918;12.530;2023-04-16T01:19:46;7.10;99.90
13426;DHT22;6785;57.918;12.530;2023-04-16T01:22:14;7.10;99.90
13426;DHT22;6785;57.918;12.530;2023-04-16T01:24:40;7.10;99.90
13426;DHT22;6785;57.918;12.530;2023-04-16T01:27:07;7.10;99.90
13426;DHT22;6785;57.918;12.530;2023-04-16T01:29:34;7.10;99.90
13426;DHT22;6785;57.918;12.530;2023-04-16T01:32:00;7.10;99.90
13426;DHT22;6785;57.918;12.530;2023-04-16T01:34:27;7.10;99.90
13426;DHT22;6785;57.918;12.530;2023-04-16T01:36:54;7.10;99.90
13426;DHT22;6785;57.918;12.530;2023-04-16T01:39:22;7.10;99.90
13426;DHT22;6785;57.918;12.530;2023-04-16T01:41:49;7.10;99.90
13426;DHT22;6785;57.918;12.530;2023-04-16T01:44:16;7.00;99.90
13426;DHT22;6785;57.918;12.530;2023-04-16T01:46:42;7.10;99.90
13426;DHT22;6785;57.918;12.530;2023-04-16T01:49:09;7.10;99.90
13426;DHT22;6785;57.918;12.530;2023-04-16T01:51:36;7.00;99.90
13426;DHT22;6785;57.918;12.530;2023-04-16T01:54:03;7.00;99.90
13426;DHT22;6785;57.918;12.530;2023-04-16T01:56:31;7.00;99.90
13426;DHT22;6785;57.918;12.530;2023-04-16T01:58:58;7.00;99.90
13426;DHT22;6785;57.918;12.530;2023-04-16T02:01:25;7.00;99.90
13426;DHT22;6785;57.918;12.530;2023-04-16T02:03:51;6.90;99.90
13426;DHT22;6785;57.918;12.530;2023-04-16T02:06:18;6.90;99.90
13426;DHT22;6785;57.918;12.530;2023-04-16T02:08:45;6.90;99.90
13426;DHT22;6785;57.918;12.530;2023-04-16T02:11:12;6.90;99.90
13426;DHT22;6785;57.918;12.530;2023-04-16T02:13:40;6.90;99.90
13426;DHT22;6785;57.918;12.530;2023-04-16T02:16:06;6.90;99.90
13426;DHT22;6785;57.918;12.530;2023-04-16T02:18:33;6.90;99.90
13426;DHT22;6785;57.918;12.530;2023-04-16T02:21:00;6.80;99.90
13426;DHT22;6785;57.918;12.530;2023-04-16T02:23:26;6.80;99.90
13426;DHT22;6785;57.918;12.530;2023-04-16T02:25:53;6.80;99.90
13426;DHT22;6785;57.918;12.530;2023-04-16T02:28:20;6.80;99.90
13426;DHT22;6785;57.918;12.530;2023-04-16T02:30:48;6.80;99.90
13426;DHT22;6785;57.918;12.530;2023-04-16T02:33:15;6.80;99.90
13426;DHT22;6785;57.918;12.530;2023-04-16T02:35:42;6.80;99.90
13426;DHT22;6785;57.918;12.530;2023-04-16T02:38:08;6.80;99.90
13426;DHT22;6785;57.918;12.530;2023-04-16T02:40:35;6.80;99.90
13426;DHT22;6785;57.918;12.530;2023-04-16T02:43:02;6.80;99.90
13426;DHT22;6785;57.918;12.530;2023-04-16T02:45:29;6.80;99.90
13426;DHT22;6785;57.918;12.530;2023-04-16T02:47:58;6.80;99.90
13426;DHT22;6785;57.918;12.530;2023-04-16T02:50:25;6.80;99.90
13426;DHT22;6785;57.918;12.530;2023-04-16T02:52:52;6.70;99.90
13426;DHT22;6785;57.918;12.530;2023-04-16T02:55:18;6.80;99.90
13426;DHT22;6785;57.918;12.530;2023-04-16T02:57:45;6.70;99.90
13426;DHT22;6785;57.918;12.530;2023-04-16T03:00:12;6.70;99.90
13426;DHT22;6785;57.918;12.530;2023-04-16T03:02:39;6.60;99.90
13426;DHT22;6785;57.918;12.530;2023-04-16T03:05:08;6.70;99.90
13426;DHT22;6785;57.918;12.530;2023-04-16T03:07:36;6.60;99.90
13426;DHT22;6785;57.918;12.530;2023-04-16T03:10:06;6.60;99.90
13426;DHT22;6785;57.918;12.530;2023-04-16T03:12:33;6.60;99.90
13426;DHT22;6785;57.918;12.530;2023-04-16T03:14:59;6.50;99.90
13426;DHT22;6785;57.918;12.530;2023-04-16T03:17:26;6.50;99.90
13426;DHT22;6785;57.918;12.530;2023-04-16T03:19:53;6.50;99.90
13426;DHT22;6785;57.918;12.530;2023-04-16T03:22:21;6.50;99.90
13426;DHT22;6785;57.918;12.530;2023-04-16T03:24:48;6.50;99.90
13426;DHT22;6785;57.918;12.530;2023-04-16T03:27:14;6.50;99.90
13426;DHT22;6785;57.918;12.530;2023-04-16T03:29:41;6.40;99.90
13426;DHT22;6785;57.918;12.530;2023-04-16T03:32:08;6.40;99.90
13426;DHT22;6785;57.918;12.530;2023-04-16T03:34:37;6.40;99.90
13426;DHT22;6785;57.918;12.530;2023-04-16T03:37:03;6.40;99.90
13426;DHT22;6785;57.918;12.530;2023-04-16T03:39:31;6.30;99.90
13426;DHT22;6785;57.918;12.530;2023-04-16T03:41:58;6.30;99.90
13426;DHT22;6785;57.918;12.530;2023-04-16T03:44:26;6.30;99.90
13426;DHT22;6785;57.918;12.530;2023-04-16T03:46:53;6.30;99.90
13426;DHT22;6785;57.918;12.530;2023-04-16T03:49:20;6.30;99.90
13426;DHT22;6785;57.918;12.530;2023-04-16T03:51:46;6.30;99.90
13426;DHT22;6785;57.918;12.530;2023-04-16T03:54:13;6.30;99.90
13426;DHT22;6785;57.918;12.530;2023-04-16T03:56:41;6.20;99.90
13426;DHT22;6785;57.918;12.530;2023-04-16T03:59:08;6.20;99.90
13426;DHT22;6785;57.918;12.530;2023-04-16T04:01:35;6.20;99.90
13426;DHT22;6785;57.918;12.530;2023-04-16T04:04:02;6.30;99.90
13426;DHT22;6785;57.918;12.530;2023-04-16T04:06:28;6.20;99.90
13426;DHT22;6785;57.918;12.530;2023-04-16T04:08:55;6.20;99.90
13426;DHT22;6785;57.918;12.530;2023-04-16T04:11:22;6.20;99.90
13426;DHT22;6785;57.918;12.530;2023-04-16T04:13:50;6.20;99.90
13426;DHT22;6785;57.918;12.530;2023-04-16T04:16:17;6.20;99.90
13426;DHT22;6785;57.918;12.530;2023-04-16T04:18:43;6.20;99.90
13426;DHT22;6785;57.918;12.530;2023-04-16T04:21:10;6.20;99.90
13426;DHT22;6785;57.918;12.530;2023-04-16T04:23:37;6.20;99.90
13426;DHT22;6785;57.918;12.530;2023-04-16T04:26:03;6.20;99.90
13426;DHT22;6785;57.918;12.530;2023-04-16T04:28:32;6.20;99.90
13426;DHT22;6785;57.918;12.530;2023-04-16T04:31:00;6.20;99.90
13426;DHT22;6785;57.918;12.530;2023-04-16T04:33:27;6.20;99.90
13426;DHT22;6785;57.918;12.530;2023-04-16T04:35:54;6.20;99.90
13426;DHT22;6785;57.918;12.530;2023-04-16T04:38:21;6.20;99.90
13426;DHT22;6785;57.918;12.530;2023-04-16T04:40:49;6.10;99.90
13426;DHT22;6785;57.918;12.530;2023-04-16T04:43:16;6.10;99.90
13426;DHT22;6785;57.918;12.530;2023-04-16T04:45:43;6.10;99.90
13426;DHT22;6785;57.918;12.530;2023-04-16T04:48:11;6.10;99.90
13426;DHT22;6785;57.918;12.530;2023-04-16T04:50:38;6.10;99.90
13426;DHT22;6785;57.918;12.530;2023-04-16T04:53:05;6.10;99.90
13426;DHT22;6785;57.918;12.530;2023-04-16T04:55:34;6.20;99.90
13426;DHT22;6785;57.918;12.530;2023-04-16T04:58:02;6.20;99.90
13426;DHT22;6785;57.918;12.530;2023-04-16T05:00:29;6.20;99.90
13426;DHT22;6785;57.918;12.530;2023-04-16T05:02:55;6.20;99.90
13426;DHT22;6785;57.918;12.530;2023-04-16T05:05:23;6.20;99.90
13426;DHT22;6785;57.918;12.530;2023-04-16T05:07:50;6.20;99.90
13426;DHT22;6785;57.918;12.530;2023-04-16T05:10:17;6.30;99.90
13426;DHT22;6785;57.918;12.530;2023-04-16T05:12:45;6.30;99.90
13426;DHT22;6785;57.918;12.530;2023-04-16T05:15:12;6.30;99.90
13426;DHT22;6785;57.918;12.530;2023-04-16T05:17:39;6.40;99.90
13426;DHT22;6785;57.918;12.530;2023-04-16T05:20:07;6.40;99.90
13426;DHT22;6785;57.918;12.530;2023-04-16T05:22:35;6.40;99.90
13426;DHT22;6785;57.918;12.530;2023-04-16T05:25:02;6.40;99.90
13426;DHT22;6785;57.918;12.530;2023-04-16T05:27:29;6.40;99.90
13426;DHT22;6785;57.918;12.530;2023-04-16T05:29:55;6.30;99.90
13426;DHT22;6785;57.918;12.530;2023-04-16T05:32:24;6.30;99.90
13426;DHT22;6785;57.918;12.530;2023-04-16T05:34:51;6.40;99.90
13426;DHT22;6785;57.918;12.530;2023-04-16T05:37:18;6.40;99.90
13426;DHT22;6785;57.918;12.530;2023-04-16T05:39:46;6.50;99.90
13426;DHT22;6785;57.918;12.530;2023-04-16T05:42:13;6.50;99.90
13426;DHT22;6785;57.918;12.530;2023-04-16T05:44:39;6.50;99.90
13426;DHT22;6785;57.918;12.530;2023-04-16T05:47:06;6.50;99.90
13426;DHT22;6785;57.918;12.530;2023-04-16T05:49:33;6.60;99.90
13426;DHT22;6785;57.918;12.530;2023-04-16T05:52:00;6.60;99.90
13426;DHT22;6785;57.918;12.530;2023-04-16T05:54:27;6.60;99.90
13426;DHT22;6785;57.918;12.530;2023-04-16T05:56:55;6.70;99.90
13426;DHT22;6785;57.918;12.530;2023-04-16T05:59:22;6.70;99.90
13426;DHT22;6785;57.918;12.530;2023-04-16T06:01:48;6.70;99.90
13426;DHT22;6785;57.918;12.530;2023-04-16T06:04:15;6.80;99.90
13426;DHT22;6785;57.918;12.530;2023-04-16T06:06:42;6.70;99.90
13426;DHT22;6785;57.918;12.530;2023-04-16T06:09:09;6.70;99.90
13426;DHT22;6785;57.918;12.530;2023-04-16T06:11:36;6.80;99.90
13426;DHT22;6785;57.918;12.530;2023-04-16T06:14:04;6.70;99.90
13426;DHT22;6785;57.918;12.530;2023-04-16T06:16:30;6.70;99.90
13426;DHT22;6785;57.918;12.530;2023-04-16T06:18:57;6.70;99.90
13426;DHT22;6785;57.918;12.530;2023-04-16T06:21:24;6.80;99.90
13426;DHT22;6785;57.918;12.530;2023-04-16T06:23:51;6.80;99.90
13426;DHT22;6785;57.918;12.530;2023-04-16T06:26:17;6.80;99.90
13426;DHT22;6785;57.918;12.530;2023-04-16T06:28:44;6.80;99.90
13426;DHT22;6785;57.918;12.530;2023-04-16T06:31:12;6.80;99.90
13426;DHT22;6785;57.918;12.530;2023-04-16T06:33:39;6.80;99.90
13426;DHT22;6785;57.918;12.530;2023-04-16T06:36:06;6.70;99.90
13426;DHT22;6785;57.918;12.530;2023-04-16T06:38:32;6.70;99.90
13426;DHT22;6785;57.918;12.530;2023-04-16T06:40:59;6.70;99.90
13426;DHT22;6785;57.918;12.530;2023-04-16T06:43:26;6.70;99.90
13426;DHT22;6785;57.918;12.530;2023-04-16T06:45:54;6.80;99.90
13426;DHT22;6785;57.918;12.530;2023-04-16T06:48:22;6.90;99.90
13426;DHT22;6785;57.918;12.530;2023-04-16T06:50:49;7.00;99.90
13426;DHT22;6785;57.918;12.530;2023-04-16T06:53:16;6.90;99.90
13426;DHT22;6785;57.918;12.530;2023-04-16T06:55:43;6.90;99.90
13426;DHT22;6785;57.918;12.530;2023-04-16T06:58:09;7.00;99.90
13426;DHT22;6785;57.918;12.530;2023-04-16T07:00:36;7.00;99.90
13426;DHT22;6785;57.918;12.530;2023-04-16T07:03:03;7.20;99.90
13426;DHT22;6785;57.918;12.530;2023-04-16T07:05:31;7.20;99.90
13426;DHT22;6785;57.918;12.530;2023-04-16T07:07:58;7.30;99.90
13426;DHT22;6785;57.918;12.530;2023-04-16T07:10:25;7.40;99.90
13426;DHT22;6785;57.918;12.530;2023-04-16T07:12:52;7.50;99.90
13426;DHT22;6785;57.918;12.530;2023-04-16T07:15:18;7.60;99.90
13426;DHT22;6785;57.918;12.530;2023-04-16T07:17:45;7.60;99.90
13426;DHT22;6785;57.918;12.530;2023-04-16T07:20:12;7.70;99.90
13426;DHT22;6785;57.918;12.530;2023-04-16T07:22:40;7.80;99.90
13426;DHT22;6785;57.918;12.530;2023-04-16T07:25:08;7.90;99.90
13426;DHT22;6785;57.918;12.530;2023-04-16T07:27:35;7.90;99.90
13426;DHT22;6785;57.918;12.530;2023-04-16T07:30:02;7.90;99.90
13426;DHT22;6785;57.918;12.530;2023-04-16T07:32:29;7.80;99.90
13426;DHT22;6785;57.918;12.530;2023-04-16T07:34:55;7.90;99.90
13426;DHT22;6785;57.918;12.530;2023-04-16T07:37:22;8.00;99.90
13426;DHT22;6785;57.918;12.530;2023-04-16T07:39:50;8.20;99.90
13426;DHT22;6785;57.918;12.530;2023-04-16T07:42:17;8.30;99.90
13426;DHT22;6785;57.918;12.530;2023-04-16T07:44:44;8.40;99.90
13426;DHT22;6785;57.918;12.530;2023-04-16T07:47:10;8.40;99.90
13426;DHT22;6785;57.918;12.530;2023-04-16T07:49:37;8.40;99.90
13426;DHT22;6785;57.918;12.530;2023-04-16T07:52:04;8.40;99.90
13426;DHT22;6785;57.918;12.530;2023-04-16T07:54:31;8.50;99.90
13426;DHT22;6785;57.918;12.530;2023-04-16T07:56:59;8.50;99.90
13426;DHT22;6785;57.918;12.530;2023-04-16T07:59:26;8.40;99.90
13426;DHT22;6785;57.918;12.530;2023-04-16T08:01:53;8.50;99.90
13426;DHT22;6785;57.918;12.530;2023-04-16T08:04:20;8.50;99.90
13426;DHT22;6785;57.918;12.530;2023-04-16T08:06:49;8.60;99.90
13426;DHT22;6785;57.918;12.530;2023-04-16T08:09:15;8.50;99.90
13426;DHT22;6785;57.918;12.530;2023-04-16T08:11:42;8.60;99.90
13426;DHT22;6785;57.918;12.530;2023-04-16T08:14:10;8.70;99.90
13426;DHT22;6785;57.918;12.530;2023-04-16T08:16:37;8.90;99.90
13426;DHT22;6785;57.918;12.530;2023-04-16T08:19:04;8.90;99.90
13426;DHT22;6785;57.918;12.530;2023-04-16T08:21:32;8.80;99.90
13426;DHT22;6785;57.918;12.530;2023-04-16T08:23:58;8.90;99.90
13426;DHT22;6785;57.918;12.530;2023-04-16T08:26:25;9.10;99.90
13426;DHT22;6785;57.918;12.530;2023-04-16T08:28:52;9.20;99.90
13426;DHT22;6785;57.918;12.530;2023-04-16T08:31:20;9.40;99.90
13426;DHT22;6785;57.918;12.530;2023-04-16T08:33:46;9.40;99.90
13426;DHT22;6785;57.918;12.530;2023-04-16T08:36:13;9.30;99.90
13426;DHT22;6785;57.918;12.530;2023-04-16T08:38:40;9.20;99.90
13426;DHT22;6785;57.918;12.530;2023-04-16T08:41:10;9.40;99.90
13426;DHT22;6785;57.918;12.530;2023-04-16T08:43:40;9.30;99.90
13426;DHT22;6785;57.918;12.530;2023-04-16T08:46:08;9.20;99.90
13426;DHT22;6785;57.918;12.530;2023-04-16T08:48:37;9.40;99.90
13426;DHT22;6785;57.918;12.530;2023-04-16T08:51:09;9.40;99.90
13426;DHT22;6785;57.918;12.530;2023-04-16T08:53:42;9.50;99.90
13426;DHT22;6785;57.918;12.530;2023-04-16T08:56:13;9.70;99.90
13426;DHT22;6785;57.918;12.530;2023-04-16T08:58:40;9.90;99.90
13426;DHT22;6785;57.918;12.530;2023-04-16T09:01:08;9.80;99.90
13426;DHT22;6785;57.918;12.530;2023-04-16T09:03:35;9.90;99.90
13426;DHT22;6785;57.918;12.530;2023-04-16T09:06:03;10.10;99.90
13426;DHT22;6785;57.918;12.530;2023-04-16T09:08:31;10.30;99.90
13426;DHT22;6785;57.918;12.530;2023-04-16T09:11:00;10.20;99.90
13426;DHT22;6785;57.918;12.530;2023-04-16T09:13:27;10.30;99.90
13426;DHT22;6785;57.918;12.530;2023-04-16T09:15:54;10.50;99.90
13426;DHT22;6785;57.918;12.530;2023-04-16T09:18:21;10.50;99.90
13426;DHT22;6785;57.918;12.530;2023-04-16T09:20:49;10.60;99.90
13426;DHT22;6785;57.918;12.530;2023-04-16T09:23:17;10.70;99.90
13426;DHT22;6785;57.918;12.530;2023-04-16T09:25:44;10.80;99.90
13426;DHT22;6785;57.918;12.530;2023-04-16T09:28:11;10.90;99.90
13426;DHT22;6785;57.918;12.530;2023-04-16T09:30:38;11.00;99.90
13426;DHT22;6785;57.918;12.530;2023-04-16T09:33:15;11.30;99.90
13426;DHT22;6785;57.918;12.530;2023-04-16T09:35:47;11.40;99.90
13426;DHT22;6785;57.918;12.530;2023-04-16T09:38:14;11.60;99.90
13426;DHT22;6785;57.918;12.530;2023-04-16T09:40:43;11.70;99.90
13426;DHT22;6785;57.918;12.530;2023-04-16T09:43:12;11.90;99.90
13426;DHT22;6785;57.918;12.530;2023-04-16T09:45:49;12.00;99.90
13426;DHT22;6785;57.918;12.530;2023-04-16T09:48:27;12.10;99.90
13426;DHT22;6785;57.918;12.530;2023-04-16T09:50:54;12.10;99.90
13426;DHT22;6785;57.918;12.530;2023-04-16T09:53:23;12.10;99.90
13426;DHT22;6785;57.918;12.530;2023-04-16T09:55:53;12.30;99.90
13426;DHT22;6785;57.918;12.530;2023-04-16T09:58:22;12.30;99.90
13426;DHT22;6785;57.918;12.530;2023-04-16T10:00:50;12.20;99.90
13426;DHT22;6785;57.918;12.530;2023-04-16T10:03:27;12.20;99.90
13426;DHT22;6785;57.918;12.530;2023-04-16T10:05:55;12.10;99.90
13426;DHT22;6785;57.918;12.530;2023-04-16T10:08:23;12.20;99.90
13426;DHT22;6785;57.918;12.530;2023-04-16T10:10:49;12.40;99.90
13426;DHT22;6785;57.918;12.530;2023-04-16T10:13:18;12.40;99.90
13426;DHT22;6785;57.918;12.530;2023-04-16T10:15:45;12.40;99.90
13426;DHT22;6785;57.918;12.530;2023-04-16T10:18:13;12.50;99.90
13426;DHT22;6785;57.918;12.530;2023-04-16T10:20:41;12.50;99.90
13426;DHT22;6785;57.918;12.530;2023-04-16T10:23:08;12.70;99.90
13426;DHT22;6785;57.918;12.530;2023-04-16T10:25:37;12.80;99.90
13426;DHT22;6785;57.918;12.530;2023-04-16T10:28:04;12.80;99.90
13426;DHT22;6785;57.918;12.530;2023-04-16T10:30:33;12.80;99.90
13426;DHT22;6785;57.918;12.530;2023-04-16T10:33:01;13.00;99.90
13426;DHT22;6785;57.918;12.530;2023-04-16T10:35:29;13.40;99.90
13426;DHT22;6785;57.918;12.530;2023-04-16T10:37:56;13.50;99.90
13426;DHT22;6785;57.918;12.530;2023-04-16T10:40:24;13.30;99.90
13426;DHT22;6785;57.918;12.530;2023-04-16T10:42:55;13.30;99.90
13426;DHT22;6785;57.918;12.530;2023-04-16T10:45:26;13.40;99.90
13426;DHT22;6785;57.918;12.530;2023-04-16T10:47:56;13.40;99.90
13426;DHT22;6785;57.918;12.530;2023-04-16T10:50:23;13.40;99.90
13426;DHT22;6785;57.918;12.530;2023-04-16T10:53:16;13.40;99.90
13426;DHT22;6785;57.918;12.530;2023-04-16T10:56:09;13.40;99.90
13426;DHT22;6785;57.918;12.530;2023-04-16T10:58:37;13.50;99.90
13426;DHT22;6785;57.918;12.530;2023-04-16T11:01:06;13.50;99.90
13426;DHT22;6785;57.918;12.530;2023-04-16T11:03:40;13.60;99.90
13426;DHT22;6785;57.918;12.530;2023-04-16T11:06:11;13.60;99.90
13426;DHT22;6785;57.918;12.530;2023-04-16T11:08:39;13.60;99.90
13426;DHT22;6785;57.918;12.530;2023-04-16T11:11:06;13.60;99.90
13426;DHT22;6785;57.918;12.530;2023-04-16T11:13:35;13.60;99.90
13426;DHT22;6785;57.918;12.530;2023-04-16T11:16:02;13.60;99.90
13426;DHT22;6785;57.918;12.530;2023-04-16T11:18:29;13.50;99.90
13426;DHT22;6785;57.918;12.530;2023-04-16T11:20:57;13.60;99.90
13426;DHT22;6785;57.918;12.530;2023-04-16T11:23:24;13.60;99.90
13426;DHT22;6785;57.918;12.530;2023-04-16T11:25:51;13.60;99.90
13426;DHT22;6785;57.918;12.530;2023-04-16T11:28:31;13.70;99.90
13426;DHT22;6785;57.918;12.530;2023-04-16T11:30:58;13.90;99.90
13426;DHT22;6785;57.918;12.530;2023-04-16T11:33:25;13.90;99.90
13426;DHT22;6785;57.918;12.530;2023-04-16T11:35:57;14.10;99.90
13426;DHT22;6785;57.918;12.530;2023-04-16T11:38:32;14.10;99.90
13426;DHT22;6785;57.918;12.530;2023-04-16T11:41:00;14.10;99.90
13426;DHT22;6785;57.918;12.530;2023-04-16T11:43:27;14.10;99.90
13426;DHT22;6785;57.918;12.530;2023-04-16T11:45:55;14.30;99.90
13426;DHT22;6785;57.918;12.530;2023-04-16T11:48:22;14.30;99.90
13426;DHT22;6785;57.918;12.530;2023-04-16T11:50:56;14.30;99.90
13426;DHT22;6785;57.918;12.530;2023-04-16T11:53:23;14.50;99.90
13426;DHT22;6785;57.918;12.530;2023-04-16T11:55:50;14.50;99.90
13426;DHT22;6785;57.918;12.530;2023-04-16T11:58:17;14.40;99.90
13426;DHT22;6785;57.918;12.530;2023-04-16T12:00:45;14.40;99.90
13426;DHT22;6785;57.918;12.530;2023-04-16T12:03:12;14.20;99.90
13426;DHT22;6785;57.918;12.530;2023-04-16T12:05:40;14.30;99.90
13426;DHT22;6785;57.918;12.530;2023-04-16T12:08:10;14.50;99.90
13426;DHT22;6785;57.918;12.530;2023-04-16T12:10:52;14.60;99.90
13426;DHT22;6785;57.918;12.530;2023-04-16T12:13:19;14.60;99.90
13426;DHT22;6785;57.918;12.530;2023-04-16T12:15:47;14.60;99.90
13426;DHT22;6785;57.918;12.530;2023-04-16T12:18:14;14.60;99.90
13426;DHT22;6785;57.918;12.530;2023-04-16T12:20:41;14.50;99.90
13426;DHT22;6785;57.918;12.530;2023-04-16T12:23:10;14.60;99.60
13426;DHT22;6785;57.918;12.530;2023-04-16T12:25:47;14.70;99.90
13426;DHT22;6785;57.918;12.530;2023-04-16T12:28:14;14.90;99.90
13426;DHT22;6785;57.918;12.530;2023-04-16T12:30:51;14.90;99.30
13426;DHT22;6785;57.918;12.530;2023-04-16T12:33:18;14.90;99.90
13426;DHT22;6785;57.918;12.530;2023-04-16T12:35:46;14.90;99.60
13426;DHT22;6785;57.918;12.530;2023-04-16T12:38:14;15.00;99.90
13426;DHT22;6785;57.918;12.530;2023-04-16T12:40:41;15.00;99.90
13426;DHT22;6785;57.918;12.530;2023-04-16T12:43:08;15.00;99.90
13426;DHT22;6785;57.918;12.530;2023-04-16T12:45:35;15.00;99.90
13426;DHT22;6785;57.918;12.530;2023-04-16T12:48:02;14.90;99.00
13426;DHT22;6785;57.918;12.530;2023-04-16T12:50:29;15.00;99.90
13426;DHT22;6785;57.918;12.530;2023-04-16T12:52:56;15.00;99.90
13426;DHT22;6785;57.918;12.530;2023-04-16T12:55:24;14.90;99.60
13426;DHT22;6785;57.918;12.530;2023-04-16T12:57:51;15.00;99.80
13426;DHT22;6785;57.918;12.530;2023-04-16T13:00:18;15.00;99.40
13426;DHT22;6785;57.918;12.530;2023-04-16T13:02:45;15.10;99.90
13426;DHT22;6785;57.918;12.530;2023-04-16T13:05:12;15.10;99.60
13426;DHT22;6785;57.918;12.530;2023-04-16T13:07:40;15.30;98.40
13426;DHT22;6785;57.918;12.530;2023-04-16T13:10:08;15.40;98.00
13426;DHT22;6785;57.918;12.530;2023-04-16T13:12:37;15.40;99.90
13426;DHT22;6785;57.918;12.530;2023-04-16T13:15:04;15.40;97.90
13426;DHT22;6785;57.918;12.530;2023-04-16T13:17:31;15.40;98.60
13426;DHT22;6785;57.918;12.530;2023-04-16T13:19:57;15.40;99.10
13426;DHT22;6785;57.918;12.530;2023-04-16T13:22:24;15.40;97.30
13426;DHT22;6785;57.918;12.530;2023-04-16T13:24:51;15.30;97.70
13426;DHT22;6785;57.918;12.530;2023-04-16T13:27:17;15.30;98.40
13426;DHT22;6785;57.918;12.530;2023-04-16T13:29:46;15.30;97.90
13426;DHT22;6785;57.918;12.530;2023-04-16T13:32:12;15.30;96.30
13426;DHT22;6785;57.918;12.530;2023-04-16T13:34:39;15.20;96.70
13426;DHT22;6785;57.918;12.530;2023-04-16T13:37:06;15.10;96.30
13426;DHT22;6785;57.918;12.530;2023-04-16T13:39:33;15.20;97.60
13426;DHT22;6785;57.918;12.530;2023-04-16T13:41:59;15.20;97.20
13426;DHT22;6785;57.918;12.530;2023-04-16T13:44:27;15.30;98.80
13426;DHT22;6785;57.918;12.530;2023-04-16T13:46:55;15.40;97.30
13426;DHT22;6785;57.918;12.530;2023-04-16T13:49:22;15.50;99.90
13426;DHT22;6785;57.918;12.530;2023-04-16T13:51:48;15.60;97.70
13426;DHT22;6785;57.918;12.530;2023-04-16T13:54:15;15.70;97.70
13426;DHT22;6785;57.918;12.530;2023-04-16T13:56:42;15.60;97.10
13426;DHT22;6785;57.918;12.530;2023-04-16T13:59:09;15.50;97.00
13426;DHT22;6785;57.918;12.530;2023-04-16T14:01:36;15.40;97.30
13426;DHT22;6785;57.918;12.530;2023-04-16T14:04:05;15.50;96.40
13426;DHT22;6785;57.918;12.530;2023-04-16T14:06:32;15.40;96.90
13426;DHT22;6785;57.918;12.530;2023-04-16T14:08:59;15.40;96.70
13426;DHT22;6785;57.918;12.530;2023-04-16T14:11:26;15.40;97.20
13426;DHT22;6785;57.918;12.530;2023-04-16T14:13:53;15.30;98.10
13426;DHT22;6785;57.918;12.530;2023-04-16T14:16:20;15.50;96.90
13426;DHT22;6785;57.918;12.530;2023-04-16T14:18:46;15.40;97.00
13426;DHT22;6785;57.918;12.530;2023-04-16T14:21:14;15.50;97.80
13426;DHT22;6785;57.918;12.530;2023-04-16T14:23:41;15.50;98.00
13426;DHT22;6785;57.918;12.530;2023-04-16T14:26:08;15.60;98.50
13426;DHT22;6785;57.918;12.530;2023-04-16T14:28:34;15.60;98.10
13426;DHT22;6785;57.918;12.530;2023-04-16T14:31:01;15.60;98.40
13426;DHT22;6785;57.918;12.530;2023-04-16T14:33:28;15.60;99.90
13426;DHT22;6785;57.918;12.530;2023-04-16T14:35:55;15.50;98.60
13426;DHT22;6785;57.918;12.530;2023-04-16T14:38:23;15.40;99.10
13426;DHT22;6785;57.918;12.530;2023-04-16T14:40:50;15.30;98.60
13426;DHT22;6785;57.918;12.530;2023-04-16T14:43:16;15.30;99.90
13426;DHT22;6785;57.918;12.530;2023-04-16T14:45:43;15.30;99.20
13426;DHT22;6785;57.918;12.530;2023-04-16T14:48:11;15.20;99.90
13426;DHT22;6785;57.918;12.530;2023-04-16T14:50:37;15.10;99.40
13426;DHT22;6785;57.918;12.530;2023-04-16T14:53:08;15.00;99.40
13426;DHT22;6785;57.918;12.530;2023-04-16T14:55:36;15.10;99.90
13426;DHT22;6785;57.918;12.530;2023-04-16T14:58:02;15.10;98.40
13426;DHT22;6785;57.918;12.530;2023-04-16T15:00:29;14.90;99.40
13426;DHT22;6785;57.918;12.530;2023-04-16T15:02:56;14.70;99.50
13426;DHT22;6785;57.918;12.530;2023-04-16T15:05:23;14.60;99.90
13426;DHT22;6785;57.918;12.530;2023-04-16T15:07:50;14.50;99.90
13426;DHT22;6785;57.918;12.530;2023-04-16T15:10:17;14.40;99.60
13426;DHT22;6785;57.918;12.530;2023-04-16T15:12:45;14.30;99.50
13426;DHT22;6785;57.918;12.530;2023-04-16T15:15:11;14.20;99.90
13426;DHT22;6785;57.918;12.530;2023-04-16T15:17:38;14.20;99.40
13426;DHT22;6785;57.918;12.530;2023-04-16T15:20:06;14.20;99.90
13426;DHT22;6785;57.918;12.530;2023-04-16T15:22:33;14.10;99.90
13426;DHT22;6785;57.918;12.530;2023-04-16T15:25:00;14.20;99.90
13426;DHT22;6785;57.918;12.530;2023-04-16T15:27:27;14.00;99.90
13426;DHT22;6785;57.918;12.530;2023-04-16T15:29:55;13.90;99.90
13426;DHT22;6785;57.918;12.530;2023-04-16T15:32:21;13.60;99.90
13426;DHT22;6785;57.918;12.530;2023-04-16T15:34:48;13.40;99.90
13426;DHT22;6785;57.918;12.530;2023-04-16T15:37:15;13.30;99.90
13426;DHT22;6785;57.918;12.530;2023-04-16T15:39:42;13.30;99.90
13426;DHT22;6785;57.918;12.530;2023-04-16T15:42:10;13.10;99.90